Time;durP1;ratioP1;P1;durP2;ratioP2;P2;SDS_P1;SDS_P2;PMS_P1;PMS_P2;Temp;Humidity;BMP_temperature;BMP_pressure;BME280_temperature;BME280_humidity;BME280_pressure;Samples;Min_cycle;Max_cycle;Signal;HPM_P1;HPM_P2
2022/07/13 00:00:27;;;;;;;12.88;10.88;;;;;;;15.77;55.57;95362.63;5115103;28;20199;-67
2022/07/13 00:02:54;;;;;;;14.90;11.82;;;;;;;15.72;55.97;95362.97;5114933;28;20196;-67
2022/07/13 00:05:21;;;;;;;10.73;9.57;;;;;;;15.69;56.02;95360.16;5115818;28;20191;-67
2022/07/13 00:07:48;;;;;;;12.07;10.30;;;;;;;15.63;56.89;95356.88;5115188;28;20200;-67
2022/07/13 00:10:16;;;;;;;10.88;8.25;;;;;;;15.60;56.79;95358.41;5115040;28;20195;-68
2022/07/13 00:12:43;;;;;;;8.57;7.40;;;;;;;15.59;55.96;95358.81;5115053;28;20207;-69
2022/07/13 00:15:10;;;;;;;8.77;7.90;;;;;;;15.65;56.46;95351.75;5116285;28;20617;-69
2022/07/13 00:17:37;;;;;;;11.75;8.25;;;;;;;15.72;56.68;95351.84;5114300;28;20192;-69
2022/07/13 00:20:04;;;;;;;7.57;6.75;;;;;;;15.80;56.23;95349.97;5116376;28;20202;-69
2022/07/13 00:22:31;;;;;;;8.80;6.10;;;;;;;15.81;56.35;95362.69;5118175;28;20238;-69
2022/07/13 00:24:58;;;;;;;5.10;4.30;;;;;;;15.83;56.07;95347.22;5117816;28;20260;-69
2022/07/13 00:27:26;;;;;;;3.80;3.40;;;;;;;15.83;55.92;95349.19;5117853;28;20203;-69
2022/07/13 00:29:53;;;;;;;2.72;2.33;;;;;;;15.86;55.98;95354.78;5119730;28;20176;-70
2022/07/13 00:32:19;;;;;;;2.47;2.28;;;;;;;15.84;55.50;95353.59;5118594;28;20191;-69
2022/07/13 00:34:46;;;;;;;2.15;1.95;;;;;;;15.83;55.48;95352.78;5117895;28;20208;-69
2022/07/13 00:37:13;;;;;;;7.50;6.72;;;;;;;15.76;56.77;95344.34;5119030;28;20184;-69
2022/07/13 00:39:40;;;;;;;8.10;7.13;;;;;;;15.67;56.87;95345.81;5118742;28;20184;-69
2022/07/13 00:42:07;;;;;;;8.30;5.97;;;;;;;15.52;56.97;95342.84;5117770;28;20199;-69
2022/07/13 00:44:35;;;;;;;8.57;5.20;;;;;;;15.37;56.68;95336.31;5117290;28;20551;-69
2022/07/13 00:47:02;;;;;;;6.10;5.07;;;;;;;15.27;56.56;95342.50;5117067;28;20197;-69
2022/07/13 00:49:31;;;;;;;6.47;5.35;;;;;;;15.20;57.36;95349.94;5118012;28;20256;-69
2022/07/13 00:51:58;;;;;;;6.60;5.45;;;;;;;15.11;56.90;95347.47;5117114;28;20200;-69
2022/07/13 00:54:28;;;;;;;6.80;4.40;;;;;;;15.04;56.99;95348.16;5117611;28;20214;-70
2022/07/13 00:56:56;;;;;;;3.67;3.38;;;;;;;15.03;56.58;95348.50;5118301;28;20286;-69
2022/07/13 00:59:23;;;;;;;3.45;3.15;;;;;;;15.12;56.46;95340.72;5118318;28;20172;-69
2022/07/13 01:01:51;;;;;;;5.50;3.30;;;;;;;15.14;56.93;95343.91;5117474;28;20195;-69
2022/07/13 01:04:18;;;;;;;3.95;3.33;;;;;;;15.17;56.46;95345.94;5117383;28;20526;-69
2022/07/13 01:06:45;;;;;;;4.85;3.38;;;;;;;15.17;56.88;95343.97;5117648;28;20196;-69
2022/07/13 01:09:12;;;;;;;3.75;3.45;;;;;;;15.20;57.03;95345.19;5117874;28;20184;-69
2022/07/13 01:11:40;;;;;;;5.03;3.42;;;;;;;15.16;57.16;95355.47;5118124;28;20184;-69
2022/07/13 01:14:07;;;;;;;3.50;3.00;;;;;;;15.14;57.66;95355.84;5118190;28;20639;-69
2022/07/13 01:16:35;;;;;;;3.75;2.95;;;;;;;15.17;57.05;95352.28;5118004;28;20191;-69
2022/07/13 01:19:04;;;;;;;4.68;2.95;;;;;;;15.13;57.75;95357.00;5117711;28;20620;-69
2022/07/13 01:21:33;;;;;;;3.80;3.38;;;;;;;15.06;57.28;95351.34;5117906;28;20195;-69
2022/07/13 01:24:01;;;;;;;4.20;3.40;;;;;;;14.95;58.00;95358.72;5118380;28;20187;-70
2022/07/13 01:26:28;;;;;;;4.20;3.30;;;;;;;14.83;57.94;95356.16;5117229;28;20196;-69
2022/07/13 01:28:54;;;;;;;3.50;3.20;;;;;;;14.78;57.10;95360.06;5116965;28;20196;-69
2022/07/13 01:31:34;;;;;;;3.67;2.85;;;;;;;14.79;57.09;95361.66;5116928;28;20203;-69
2022/07/13 01:34:01;;;;;;;3.47;2.95;;;;;;;14.81;57.04;95359.28;5116865;28;20659;-69
2022/07/13 01:36:28;;;;;;;3.53;2.88;;;;;;;14.89;57.57;95352.69;5117963;28;20604;-69
2022/07/13 01:38:55;;;;;;;2.95;2.75;;;;;;;14.96;57.32;95346.47;5116424;28;20199;-69
2022/07/13 01:41:24;;;;;;;2.95;2.67;;;;;;;14.97;57.29;95342.50;5116587;28;20191;-69
2022/07/13 01:43:51;;;;;;;3.53;2.88;;;;;;;15.00;57.02;95338.19;5117462;28;20195;-69
2022/07/13 01:46:17;;;;;;;4.05;2.80;;;;;;;14.95;56.69;95336.50;5116367;28;20200;-69
2022/07/13 01:48:44;;;;;;;4.45;3.25;;;;;;;14.93;57.55;95336.09;5116340;28;20191;-69
2022/07/13 01:51:11;;;;;;;3.63;2.70;;;;;;;14.83;58.43;95331.19;5117146;28;20183;-69
2022/07/13 01:53:38;;;;;;;4.85;3.00;;;;;;;14.73;58.03;95335.38;5116028;28;20231;-69
2022/07/13 01:56:05;;;;;;;3.47;2.80;;;;;;;14.62;58.52;95340.75;5116682;28;20244;-69
2022/07/13 01:58:33;;;;;;;5.25;2.97;;;;;;;14.54;58.52;95343.81;5116126;28;20202;-69
2022/07/13 02:01:00;;;;;;;3.90;3.00;;;;;;;14.48;59.37;95343.28;5116570;28;20603;-69
2022/07/13 02:03:29;;;;;;;5.55;4.38;;;;;;;14.41;59.26;95351.47;5115582;28;20210;-69
2022/07/13 02:05:56;;;;;;;7.25;5.07;;;;;;;14.35;59.19;95350.22;5116797;28;20188;-69
2022/07/13 02:08:23;;;;;;;8.00;5.40;;;;;;;14.31;59.71;95346.56;5116803;28;20184;-69
2022/07/13 02:10:50;;;;;;;5.47;4.32;;;;;;;14.23;59.61;95356.72;5116745;28;20249;-69
2022/07/13 02:13:17;;;;;;;7.35;4.38;;;;;;;14.20;60.21;95357.47;5116039;28;20202;-69
2022/07/13 02:15:45;;;;;;;7.03;3.40;;;;;;;14.13;59.84;95352.59;5116277;28;20207;-69
2022/07/13 02:18:12;;;;;;;6.80;3.70;;;;;;;14.13;59.67;95357.34;5116343;28;20188;-69
2022/07/13 02:20:39;;;;;;;5.43;3.22;;;;;;;14.13;59.77;95354.59;5116734;28;20188;-69
2022/07/13 02:23:06;;;;;;;3.55;3.05;;;;;;;14.17;60.15;95352.66;5115553;28;20203;-69
2022/07/13 02:25:34;;;;;;;4.78;3.60;;;;;;;14.26;59.41;95355.19;5116440;28;20186;-69
2022/07/13 02:28:01;;;;;;;4.35;3.42;;;;;;;14.32;59.77;95353.72;5116134;28;20523;-69
2022/07/13 02:30:28;;;;;;;3.38;3.05;;;;;;;14.34;59.46;95352.19;5116513;28;20188;-69
2022/07/13 02:32:56;;;;;;;5.10;3.60;;;;;;;14.40;59.52;95356.22;5115291;28;20303;-69
2022/07/13 02:35:23;;;;;;;3.50;3.00;;;;;;;14.42;59.16;95347.56;5115185;28;20237;-69
2022/07/13 02:37:50;;;;;;;4.18;3.25;;;;;;;14.45;59.75;95350.38;5115983;28;20187;-69
2022/07/13 02:40:17;;;;;;;4.88;3.00;;;;;;;14.51;59.34;95347.31;5115456;28;20192;-69
2022/07/13 02:42:44;;;;;;;4.15;2.75;;;;;;;14.49;59.31;95347.69;5114410;28;20187;-69
2022/07/13 02:45:11;;;;;;;3.58;3.20;;;;;;;14.44;60.03;95350.75;5115598;28;20195;-69
2022/07/13 02:47:38;;;;;;;7.10;4.32;;;;;;;14.33;60.24;95347.78;5116183;28;20207;-69
2022/07/13 02:50:06;;;;;;;8.80;4.47;;;;;;;14.21;60.59;95353.53;5115982;28;20210;-69
2022/07/13 02:52:33;;;;;;;9.52;5.13;;;;;;;14.11;60.78;95346.59;5114791;28;20235;-69
2022/07/13 02:55:00;;;;;;;7.20;4.40;;;;;;;14.14;60.82;95351.44;5114901;28;20214;-69
2022/07/13 02:57:27;;;;;;;5.65;3.80;;;;;;;14.15;60.96;95349.44;5115580;28;20199;-69
2022/07/13 02:59:54;;;;;;;11.32;5.55;;;;;;;14.13;61.27;95349.84;5116018;28;20184;-69
2022/07/13 03:02:20;;;;;;;11.85;5.68;;;;;;;14.08;61.56;95346.53;5115197;28;20207;-69
2022/07/13 03:04:47;;;;;;;11.43;5.25;;;;;;;14.09;61.13;95353.69;5114856;28;20196;-69
2022/07/13 03:07:16;;;;;;;8.82;4.38;;;;;;;14.13;61.12;95355.38;5114818;28;20188;-69
2022/07/13 03:09:42;;;;;;;12.20;8.73;;;;;;;14.20;61.55;95352.72;5115056;28;20244;-69
2022/07/13 03:12:09;;;;;;;5.93;3.80;;;;;;;14.23;61.55;95355.91;5115781;28;20192;-69
2022/07/13 03:14:36;;;;;;;6.45;3.50;;;;;;;14.25;60.96;95354.38;5115759;28;20227;-69
2022/07/13 03:17:03;;;;;;;5.68;3.35;;;;;;;14.27;60.73;95346.50;5114694;28;20195;-69
2022/07/13 03:19:31;;;;;;;6.32;3.60;;;;;;;14.31;60.87;95352.91;5114974;28;20223;-69
2022/07/13 03:21:57;;;;;;;4.63;3.35;;;;;;;14.34;60.29;95351.34;5114982;28;20202;-69
2022/07/13 03:24:26;;;;;;;10.90;4.25;;;;;;;14.31;61.21;95357.66;5114725;28;20192;-69
2022/07/13 03:26:53;;;;;;;13.73;4.65;;;;;;;14.21;61.96;95348.78;5114695;28;20192;-69
2022/07/13 03:29:19;;;;;;;10.32;4.97;;;;;;;14.13;62.12;95346.25;5114821;28;20198;-69
2022/07/13 03:31:46;;;;;;;8.10;4.70;;;;;;;14.07;62.41;95342.97;5115298;28;20604;-69
2022/07/13 03:34:13;;;;;;;8.43;4.57;;;;;;;14.04;62.66;95345.69;5115553;28;20253;-69
2022/07/13 03:36:40;;;;;;;7.72;4.40;;;;;;;14.05;62.67;95342.56;5114650;28;20203;-69
2022/07/13 03:39:07;;;;;;;8.23;4.65;;;;;;;14.08;63.14;95341.00;5114452;28;20200;-69
2022/07/13 03:41:35;;;;;;;8.75;4.30;;;;;;;14.10;63.00;95347.78;5115239;28;20195;-69
2022/07/13 03:44:02;;;;;;;7.15;4.28;;;;;;;14.07;63.10;95348.53;5114582;28;20357;-69
2022/07/13 03:46:29;;;;;;;8.15;3.95;;;;;;;14.08;62.94;95341.78;5115069;28;20184;-69
2022/07/13 03:48:55;;;;;;;5.30;3.60;;;;;;;14.12;62.70;95342.66;5114084;28;20192;-69
2022/07/13 03:51:22;;;;;;;5.63;2.80;;;;;;;14.17;62.15;95345.16;5115410;28;20192;-69
2022/07/13 03:53:49;;;;;;;5.50;3.05;;;;;;;14.20;62.65;95344.41;5114948;28;20242;-69
2022/07/13 03:56:15;;;;;;;5.45;3.35;;;;;;;14.21;62.59;95345.22;5118936;28;20212;-69
2022/07/13 03:58:44;;;;;;;9.75;4.28;;;;;;;14.20;62.99;95346.38;5119037;28;20195;-69
2022/07/13 04:01:10;;;;;;;7.25;3.70;;;;;;;14.18;62.70;95351.50;5118472;28;20244;-69
2022/07/13 04:03:37;;;;;;;8.30;4.57;;;;;;;14.13;62.56;95349.03;5118781;28;20200;-69
2022/07/13 04:06:04;;;;;;;10.23;4.10;;;;;;;14.09;62.58;95348.97;5118823;28;20183;-69
2022/07/13 04:08:30;;;;;;;9.90;3.50;;;;;;;14.12;61.98;95353.75;5118868;28;20176;-69
2022/07/13 04:10:57;;;;;;;8.32;3.33;;;;;;;14.16;61.35;95353.81;5118965;28;20184;-69
2022/07/13 04:13:24;;;;;;;7.00;3.20;;;;;;;14.23;61.40;95356.72;5118027;28;20248;-69
2022/07/13 04:15:52;;;;;;;5.97;3.55;;;;;;;14.30;60.95;95356.03;5118915;28;20212;-69
2022/07/13 04:18:19;;;;;;;6.95;3.10;;;;;;;14.34;61.20;95360.50;5118918;28;20192;-69
2022/07/13 04:20:45;;;;;;;6.68;3.50;;;;;;;14.41;61.23;95359.81;5118875;28;20192;-69
2022/07/13 04:23:12;;;;;;;7.05;3.40;;;;;;;14.46;61.02;95362.28;5118843;28;20202;-69
2022/07/13 04:25:39;;;;;;;8.02;4.03;;;;;;;14.52;61.43;95371.13;5118954;28;20203;-69
2022/07/13 04:28:06;;;;;;;6.35;3.33;;;;;;;14.59;62.18;95368.47;5118118;28;20195;-69
2022/07/13 04:30:32;;;;;;;3.92;3.10;;;;;;;14.61;61.33;95374.47;5117953;28;20202;-69
2022/07/13 04:33:01;;;;;;;5.97;3.35;;;;;;;14.67;61.53;95382.09;5118628;28;20257;-69
2022/07/13 04:35:28;;;;;;;5.70;3.30;;;;;;;14.74;60.75;95370.28;5118446;28;20521;-69
2022/07/13 04:37:55;;;;;;;5.30;3.20;;;;;;;14.79;60.74;95375.53;5118551;28;20184;-69
2022/07/13 04:40:22;;;;;;;4.10;3.10;;;;;;;14.84;60.93;95378.00;5117710;28;20195;-69
2022/07/13 04:42:49;;;;;;;4.88;3.17;;;;;;;14.83;60.63;95381.94;5117525;28;20192;-69
2022/07/13 04:45:18;;;;;;;4.63;3.20;;;;;;;14.86;60.36;95372.09;5117697;28;20210;-69
2022/07/13 04:47:45;;;;;;;6.75;3.00;;;;;;;14.87;60.13;95376.47;5117832;28;20253;-69
2022/07/13 04:50:13;;;;;;;5.15;3.50;;;;;;;14.88;59.73;95376.06;5117353;28;20219;-69
2022/07/13 04:52:39;;;;;;;6.15;3.03;;;;;;;14.93;59.39;95377.75;5117010;28;20304;-69
2022/07/13 04:55:07;;;;;;;2.47;2.28;;;;;;;14.98;59.54;95371.88;5117800;28;20203;-69
2022/07/13 04:57:34;;;;;;;4.53;2.83;;;;;;;15.05;59.83;95368.41;5118133;28;20244;-69
2022/07/13 05:00:01;;;;;;;4.63;2.58;;;;;;;15.09;59.60;95372.03;5117278;28;20184;-70
2022/07/13 05:02:28;;;;;;;2.42;2.20;;;;;;;15.13;59.16;95372.88;5118155;28;20249;-69
2022/07/13 05:04:55;;;;;;;3.95;2.42;;;;;;;15.22;58.83;95365.06;5117220;28;20302;-69
2022/07/13 05:07:23;;;;;;;6.47;3.15;;;;;;;15.31;59.34;95378.69;5116297;28;20202;-69
2022/07/13 05:09:50;;;;;;;4.43;2.50;;;;;;;15.36;59.61;95372.81;5100474;28;20203;-69
2022/07/13 05:12:17;;;;;;;3.03;2.38;;;;;;;15.41;59.64;95370.50;5117664;28;20180;-69
2022/07/13 05:14:43;;;;;;;5.10;2.70;;;;;;;15.47;59.86;95381.28;5117389;28;20635;-69
2022/07/13 05:17:10;;;;;;;5.40;2.42;;;;;;;15.49;59.42;95371.38;5116789;28;20207;-69
2022/07/13 05:19:37;;;;;;;4.25;2.53;;;;;;;15.53;59.37;95377.00;5117791;28;20195;-69
2022/07/13 05:22:04;;;;;;;4.70;3.13;;;;;;;15.59;58.93;95369.94;5117243;28;20199;-69
2022/07/13 05:24:32;;;;;;;4.90;2.70;;;;;;;15.68;58.45;95376.03;5117821;28;20184;-69
2022/07/13 05:26:58;;;;;;;4.13;2.47;;;;;;;15.73;58.37;95378.47;5117529;28;20180;-69
2022/07/13 05:29:25;;;;;;;2.80;2.13;;;;;;;15.80;57.94;95375.00;5116728;28;20211;-69
2022/07/13 05:31:52;;;;;;;2.55;2.33;;;;;;;15.86;57.55;95379.81;5116872;28;20241;-69
2022/07/13 05:34:19;;;;;;;2.75;2.35;;;;;;;15.91;57.93;95384.25;5116230;28;20206;-69
2022/07/13 05:36:45;;;;;;;3.20;2.90;;;;;;;15.94;58.04;95380.72;5117400;28;20213;-69
2022/07/13 05:39:12;;;;;;;2.70;2.50;;;;;;;15.99;56.85;95385.94;5116997;28;20176;-69
2022/07/13 05:41:40;;;;;;;3.30;2.10;;;;;;;16.03;57.09;95384.00;5116731;28;20192;-69
2022/07/13 05:44:07;;;;;;;2.15;1.80;;;;;;;16.06;56.98;95386.00;5116663;28;20196;-69
2022/07/13 05:46:34;;;;;;;3.88;2.03;;;;;;;16.12;57.26;95387.28;5117192;28;20184;-69
2022/07/13 05:49:01;;;;;;;2.90;2.58;;;;;;;16.15;57.39;95382.91;5117111;28;20188;-69
2022/07/13 05:51:28;;;;;;;3.40;2.50;;;;;;;16.20;56.65;95377.03;5116282;28;20256;-69
2022/07/13 05:53:55;;;;;;;2.55;2.03;;;;;;;16.24;56.54;95386.22;5116445;28;20246;-69
2022/07/13 05:56:21;;;;;;;3.50;2.13;;;;;;;16.30;55.88;95379.13;5115909;28;20768;-69
2022/07/13 05:58:50;;;;;;;3.15;2.03;;;;;;;16.36;54.64;95385.94;5116069;28;20199;-69
2022/07/13 06:01:16;;;;;;;2.72;2.33;;;;;;;16.41;54.91;95376.41;5116238;28;20195;-69
2022/07/13 06:03:43;;;;;;;2.70;2.08;;;;;;;16.46;54.55;95372.50;5115938;28;20198;-69
2022/07/13 06:06:10;;;;;;;2.65;2.17;;;;;;;16.49;54.18;95375.31;5116701;28;20188;-69
2022/07/13 06:08:38;;;;;;;2.13;1.70;;;;;;;16.54;52.68;95371.38;5115999;28;20196;-69
2022/07/13 06:11:04;;;;;;;2.13;1.70;;;;;;;16.58;52.40;95375.00;5116664;28;20191;-69
2022/07/13 06:13:31;;;;;;;2.30;2.10;;;;;;;16.63;51.83;95374.66;5115510;28;20203;-69
2022/07/13 06:16:01;;;;;;;3.78;2.30;;;;;;;16.67;51.69;95369.13;5116661;28;20203;-69
2022/07/13 06:18:28;;;;;;;3.85;2.20;;;;;;;16.69;50.54;95367.53;5115697;28;20210;-69
2022/07/13 06:20:55;;;;;;;3.25;2.70;;;;;;;16.74;49.99;95364.44;5116504;28;20180;-69
2022/07/13 06:23:21;;;;;;;5.88;2.17;;;;;;;16.77;50.35;95373.97;5116208;28;20184;-69
2022/07/13 06:25:48;;;;;;;3.95;2.10;;;;;;;16.82;50.84;95368.06;5115679;28;20204;-69
2022/07/13 06:28:15;;;;;;;3.25;2.40;;;;;;;16.84;49.62;95366.47;5115661;28;20203;-69
2022/07/13 06:30:42;;;;;;;6.03;2.58;;;;;;;16.89;49.77;95370.91;5116373;28;20245;-69
2022/07/13 06:33:10;;;;;;;3.38;2.72;;;;;;;16.93;50.15;95368.16;5116008;28;20203;-69
2022/07/13 06:35:37;;;;;;;2.92;2.50;;;;;;;16.97;49.61;95368.97;5115269;28;20215;-69
2022/07/13 06:38:04;;;;;;;2.40;2.05;;;;;;;17.01;49.05;95367.03;5116348;28;20332;-69
2022/07/13 06:40:30;;;;;;;2.55;1.98;;;;;;;17.03;48.93;95361.84;5116220;28;20183;-69
2022/07/13 06:42:57;;;;;;;4.05;2.33;;;;;;;17.06;48.74;95358.28;5116167;28;20217;-69
2022/07/13 06:45:24;;;;;;;4.55;2.63;;;;;;;17.09;49.13;95360.28;5114900;28;20202;-69
2022/07/13 06:47:51;;;;;;;4.70;2.50;;;;;;;17.12;48.20;95351.16;5116037;28;20175;-69
2022/07/13 06:50:19;;;;;;;4.45;2.55;;;;;;;17.16;49.05;95351.19;5115162;28;20638;-69
2022/07/13 06:52:47;;;;;;;4.07;2.42;;;;;;;17.19;48.90;95342.06;5115708;28;20685;-69
2022/07/13 06:55:15;;;;;;;2.60;2.40;;;;;;;17.23;49.19;95348.44;5115864;28;20210;-69
2022/07/13 06:57:42;;;;;;;5.45;3.90;;;;;;;17.25;48.06;95346.88;5115247;28;20196;-69
2022/07/13 07:00:10;;;;;;;3.70;3.40;;;;;;;17.28;47.85;95343.31;5115979;28;20205;-69
2022/07/13 07:02:37;;;;;;;2.70;2.50;;;;;;;17.33;47.96;95344.94;5114701;28;20203;-69
2022/07/13 07:05:05;;;;;;;2.25;2.08;;;;;;;17.37;48.53;95347.72;5115804;28;20369;-69
2022/07/13 07:07:33;;;;;;;2.85;1.90;;;;;;;17.39;48.09;95346.13;5115857;28;20252;-69
2022/07/13 07:10:00;;;;;;;1.70;1.60;;;;;;;17.42;47.49;95347.34;5115834;28;20190;-69
2022/07/13 07:12:27;;;;;;;2.30;2.10;;;;;;;17.46;47.70;95348.16;5114523;28;20202;-69
2022/07/13 07:14:54;;;;;;;2.00;1.80;;;;;;;17.50;47.75;95351.75;5114700;28;20279;-69
2022/07/13 07:17:20;;;;;;;1.80;1.40;;;;;;;17.53;47.62;95349.00;5115371;28;20534;-69
2022/07/13 07:19:47;;;;;;;3.13;1.80;;;;;;;17.58;47.73;95347.84;5115858;28;20200;-69
2022/07/13 07:22:14;;;;;;;2.33;1.50;;;;;;;17.60;46.76;95353.81;5115728;28;20223;-69
2022/07/13 07:24:42;;;;;;;1.95;1.58;;;;;;;17.63;47.17;95355.81;5114879;28;20210;-69
2022/07/13 07:27:10;;;;;;;2.30;1.77;;;;;;;17.69;46.55;95365.44;5115355;28;20231;-69
2022/07/13 07:29:37;;;;;;;2.78;1.50;;;;;;;17.75;45.57;95357.47;5116213;28;20227;-69
2022/07/13 07:32:05;;;;;;;1.88;1.63;;;;;;;17.80;45.86;95362.72;5119255;28;20214;-69
2022/07/13 07:34:32;;;;;;;2.17;1.48;;;;;;;17.84;46.50;95360.72;5119642;28;20200;-69
2022/07/13 07:36:59;;;;;;;3.75;1.75;;;;;;;17.90;46.47;95352.75;5119568;28;20272;-69
2022/07/13 07:39:26;;;;;;;2.15;1.70;;;;;;;17.94;45.72;95361.97;5119444;28;20191;-69
2022/07/13 07:41:54;;;;;;;2.03;1.50;;;;;;;17.96;46.08;95359.56;5118816;28;20202;-69
2022/07/13 07:44:21;;;;;;;2.90;1.60;;;;;;;17.98;45.57;95362.78;5119650;28;20180;-69
2022/07/13 07:46:48;;;;;;;3.88;2.20;;;;;;;18.02;45.06;95360.78;5119537;28;20191;-69
2022/07/13 07:49:15;;;;;;;1.70;1.60;;;;;;;18.09;45.75;95354.44;5118471;28;20199;-69
2022/07/13 07:51:43;;;;;;;2.20;1.40;;;;;;;18.14;46.67;95357.63;5118967;28;20191;-69
2022/07/13 07:54:09;;;;;;;1.90;1.30;;;;;;;18.23;45.44;95360.06;5118316;28;20257;-69
2022/07/13 07:56:36;;;;;;;2.72;1.48;;;;;;;18.23;44.12;95352.47;5118648;28;20208;-69
2022/07/13 07:59:04;;;;;;;2.13;1.92;;;;;;;18.24;43.59;95356.06;5119414;28;20184;-69
2022/07/13 08:01:31;;;;;;;2.63;1.60;;;;;;;18.24;44.00;95347.69;5118425;28;20192;-69
2022/07/13 08:03:58;;;;;;;3.60;1.80;;;;;;;18.26;44.59;95354.50;5119322;28;20187;-69
2022/07/13 08:06:24;;;;;;;1.70;1.60;;;;;;;18.30;45.71;95346.13;5118671;28;20195;-69
2022/07/13 08:08:51;;;;;;;3.90;2.00;;;;;;;18.36;45.25;95347.31;5119399;28;20195;-69
2022/07/13 08:11:19;;;;;;;3.15;2.03;;;;;;;18.41;45.07;95343.31;5118974;28;20672;-69
2022/07/13 08:13:46;;;;;;;2.05;1.80;;;;;;;18.45;44.70;95350.53;5119190;28;20206;-69
2022/07/13 08:16:15;;;;;;;1.85;1.40;;;;;;;18.50;44.15;95352.91;5118319;28;20215;-69
2022/07/13 08:18:41;;;;;;;1.55;1.45;;;;;;;18.53;43.58;95346.53;5119611;28;20219;-69
2022/07/13 08:21:08;;;;;;;2.53;1.35;;;;;;;18.59;45.21;95346.13;5119077;28;20646;-69
2022/07/13 08:23:54;;;;;;;1.63;1.52;;;;;;;18.66;44.38;95346.13;5119491;28;20202;-69
2022/07/13 08:26:22;;;;;;;2.42;1.73;;;;;;;18.74;44.21;95348.56;5118961;28;20275;-69
2022/07/13 08:28:50;;;;;;;3.65;2.40;;;;;;;18.76;43.62;95340.56;5118747;28;20204;-69
2022/07/13 08:31:20;;;;;;;2.80;1.70;;;;;;;18.79;43.90;95341.00;5118774;28;20188;-69
2022/07/13 08:39:14;;;;;;;3.83;1.60;;;;;;;19.12;43.71;95354.53;5117816;28;20231;-69
2022/07/13 08:41:41;;;;;;;2.55;1.42;;;;;;;19.16;43.29;95346.94;5116812;28;20616;-69
2022/07/13 08:44:08;;;;;;;2.38;1.65;;;;;;;19.21;43.17;95349.34;5118399;28;20199;-69
2022/07/13 08:46:37;;;;;;;2.08;1.88;;;;;;;19.21;43.20;95340.16;5118344;28;20605;-69
2022/07/13 08:49:04;;;;;;;5.55;2.70;;;;;;;19.27;42.96;95343.31;5118044;28;20188;-69
2022/07/13 08:51:34;;;;;;;3.25;2.28;;;;;;;19.31;42.05;95347.69;5118402;28;20192;-69
2022/07/13 08:54:02;;;;;;;2.10;1.90;;;;;;;19.33;41.97;95341.72;5118517;28;20311;-69
2022/07/13 08:56:31;;;;;;;3.63;2.35;;;;;;;19.35;42.61;95336.50;5118190;28;20239;-69
2022/07/13 08:58:58;;;;;;;2.83;1.88;;;;;;;19.41;44.19;95340.50;5117296;28;20206;-69
2022/07/13 09:01:25;;;;;;;3.60;2.10;;;;;;;19.52;42.56;95348.88;5118067;28;20249;-69
2022/07/13 09:03:54;;;;;;;4.57;2.35;;;;;;;19.60;42.24;95340.03;5117323;28;20199;-69
2022/07/13 09:06:44;;;;;;;5.00;2.90;;;;;;;19.70;40.95;95335.63;5116948;28;20630;-69
2022/07/13 09:09:33;;;;;;;2.17;1.40;;;;;;;19.83;42.05;95341.59;5117094;28;20631;-69
2022/07/13 09:12:16;;;;;;;2.30;1.50;;;;;;;19.81;40.85;95338.41;5116888;28;20501;-69
2022/07/13 09:14:45;;;;;;;2.33;1.83;;;;;;;19.85;42.30;95330.78;5116099;28;20206;-69
2022/07/13 09:17:30;;;;;;;1.30;1.23;;;;;;;19.94;40.95;95331.16;5116940;28;20273;-69
2022/07/13 09:20:01;;;;;;;1.15;1.13;;;;;;;19.96;41.03;95329.53;5117656;28;20249;-69
2022/07/13 09:22:28;;;;;;;1.50;1.40;;;;;;;20.00;42.29;95323.91;5117582;28;20206;-69
2022/07/13 09:24:55;;;;;;;3.35;1.40;;;;;;;20.11;43.70;95319.03;5116897;28;20206;-69
2022/07/13 09:27:23;;;;;;;1.92;1.50;;;;;;;20.29;40.78;95321.72;5116796;28;20196;-69
2022/07/13 09:29:50;;;;;;;1.88;1.40;;;;;;;20.36;41.43;95318.88;5116859;28;20191;-69
2022/07/13 09:32:17;;;;;;;1.60;1.30;;;;;;;20.37;41.82;95308.47;5117348;28;20596;-69
2022/07/13 09:34:52;;;;;;;2.50;1.48;;;;;;;20.46;42.73;95325.63;5116793;28;20195;-69
2022/07/13 09:37:22;;;;;;;1.40;1.30;;;;;;;20.43;41.21;95321.63;5117640;28;20211;-69
2022/07/13 09:40:05;;;;;;;2.78;1.85;;;;;;;20.40;41.63;95327.28;5116932;28;20199;-69
2022/07/13 09:42:35;;;;;;;4.07;1.90;;;;;;;20.55;44.89;95323.22;5116657;28;20199;-69
2022/07/13 09:47:49;;;;;;;1.83;1.52;;;;;;;20.70;42.49;95314.66;5116193;28;20199;-69
2022/07/13 09:50:18;;;;;;;4.30;3.10;;;;;;;20.62;41.18;95311.13;5116466;28;20211;-69
2022/07/13 09:52:47;;;;;;;1.92;1.83;;;;;;;20.56;41.16;95322.00;5116579;28;20300;-69
2022/07/13 09:55:19;;;;;;;1.80;1.70;;;;;;;20.49;41.73;95329.63;5116169;28;20579;-69
2022/07/13 09:57:48;;;;;;;3.55;2.25;;;;;;;20.41;41.04;95321.28;5116176;28;20302;-69
2022/07/13 10:00:17;;;;;;;1.92;1.60;;;;;;;20.49;42.93;95318.41;5117180;28;20192;-69
2022/07/13 10:02:46;;;;;;;1.75;1.35;;;;;;;20.79;44.70;95312.19;5116214;28;20230;-69
2022/07/13 10:05:14;;;;;;;1.38;1.27;;;;;;;21.04;43.32;95314.78;5116210;28;20214;-69
2022/07/13 10:07:42;;;;;;;1.92;1.23;;;;;;;21.20;40.93;95319.84;5116088;28;20196;-69
2022/07/13 10:10:13;;;;;;;1.52;1.40;;;;;;;21.36;41.80;95317.31;5116895;28;20196;-69
2022/07/13 10:12:40;;;;;;;1.50;1.40;;;;;;;21.47;40.00;95317.97;5116840;28;20226;-69
2022/07/13 10:15:08;;;;;;;1.80;1.35;;;;;;;21.45;40.87;95305.56;5116845;28;20206;-69
2022/07/13 10:17:36;;;;;;;1.77;1.60;;;;;;;21.32;40.60;95311.69;5116618;28;20211;-69
2022/07/13 10:20:08;;;;;;;2.20;1.50;;;;;;;21.20;41.42;95317.81;5115774;28;20226;-69
2022/07/13 10:22:38;;;;;;;1.67;1.42;;;;;;;21.22;41.01;95304.19;5116566;28;20484;-70
2022/07/13 10:25:06;;;;;;;1.30;1.20;;;;;;;21.30;42.79;95297.28;5116012;28;20199;-70
2022/07/13 10:27:35;;;;;;;1.33;1.23;;;;;;;21.49;40.50;95297.91;5116548;28;20673;-69
2022/07/13 10:30:05;;;;;;;1.67;1.58;;;;;;;21.64;39.85;95302.13;5115759;28;20211;-69
2022/07/13 10:32:33;;;;;;;2.65;1.52;;;;;;;21.83;41.65;95307.13;5116409;28;20195;-69
2022/07/13 10:35:01;;;;;;;1.50;1.33;;;;;;;21.83;39.46;95300.72;5115822;28;20183;-69
2022/07/13 10:37:28;;;;;;;1.45;1.35;;;;;;;21.76;40.13;95292.41;5116265;28;20211;-69
2022/07/13 10:40:14;;;;;;;1.55;1.40;;;;;;;21.82;40.00;95293.50;5115468;28;20195;-69
2022/07/13 10:43:21;;;;;;;2.88;1.73;;;;;;;21.87;39.42;95296.66;5115406;28;20273;-69
2022/07/13 10:45:51;;;;;;;1.58;1.38;;;;;;;22.04;40.97;95288.41;5092529;28;20217;-69
2022/07/13 10:48:40;;;;;;;1.60;1.50;;;;;;;22.20;40.58;95291.41;5116013;28;20657;-69
2022/07/13 10:51:17;;;;;;;1.70;1.33;;;;;;;22.31;40.59;95286.44;5115995;28;20263;-69
2022/07/13 10:54:06;;;;;;;1.40;1.30;;;;;;;22.39;40.64;95294.75;5114853;28;20231;-69
2022/07/13 10:56:33;;;;;;;4.10;1.40;;;;;;;22.44;39.50;95294.28;5115940;28;20195;-70
2022/07/13 10:59:02;;;;;;;2.65;1.42;;;;;;;22.39;39.40;95295.56;5115590;28;20207;-70
2022/07/13 11:01:40;;;;;;;1.50;1.40;;;;;;;22.43;40.17;95295.50;5115262;28;20180;-70
2022/07/13 11:04:08;;;;;;;1.40;1.30;;;;;;;22.40;39.29;95293.53;5114875;28;20611;-69
2022/07/13 11:06:36;;;;;;;1.65;1.52;;;;;;;22.29;40.20;95294.47;5114596;28;20634;-70
2022/07/13 11:09:16;;;;;;;1.60;1.45;;;;;;;22.21;39.49;95287.38;5115523;28;20180;-69
2022/07/13 11:11:46;;;;;;;2.85;1.70;;;;;;;22.13;40.50;95277.44;5115984;28;20176;-69
2022/07/13 11:14:49;;;;;;;1.45;1.38;;;;;;;22.25;42.33;95285.31;5116175;28;20226;-69
2022/07/13 11:17:20;;;;;;;1.77;1.50;;;;;;;22.46;40.32;95278.59;5114906;28;20212;-69
2022/07/13 11:19:58;;;;;;;1.80;1.40;;;;;;;22.52;38.68;95281.72;5115752;28;20192;-69
2022/07/13 11:22:26;;;;;;;1.30;1.30;;;;;;;22.49;40.22;95269.31;5115086;28;20195;-69
2022/07/13 11:25:14;;;;;;;2.00;1.70;;;;;;;22.60;40.36;95260.72;5115653;28;20191;-69
2022/07/13 11:27:45;;;;;;;1.60;1.50;;;;;;;22.74;42.78;95265.31;5114888;28;20620;-69
2022/07/13 11:30:15;;;;;;;1.40;1.30;;;;;;;22.80;38.31;95260.75;5114813;28;20596;-69
2022/07/13 11:32:42;;;;;;;1.10;1.10;;;;;;;22.80;37.94;95266.38;5115742;28;20188;-69
2022/07/13 11:35:09;;;;;;;2.53;1.30;;;;;;;22.64;37.92;95258.63;5115261;28;20187;-69
2022/07/13 11:37:37;;;;;;;2.28;1.98;;;;;;;22.48;39.37;95266.94;5115216;28;20215;-69
2022/07/13 11:40:04;;;;;;;1.50;1.40;;;;;;;22.30;38.49;95265.19;5114949;28;20206;-69
2022/07/13 11:42:31;;;;;;;1.55;1.40;;;;;;;22.31;39.59;95254.75;5115740;28;20188;-70
2022/07/13 11:44:58;;;;;;;2.33;1.50;;;;;;;22.39;38.41;95261.84;5115456;28;20195;-69
2022/07/13 11:47:27;;;;;;;1.58;1.48;;;;;;;22.46;40.06;95261.72;5114877;28;20187;-69